createdAt,value
2018-07-05T00:01:17.630Z,21.18
2018-07-05T00:04:03.901Z,21.09
2018-07-05T00:06:50.279Z,21.01
2018-07-05T00:09:36.554Z,20.99
2018-07-05T00:12:22.930Z,20.97
2018-07-05T00:15:09.238Z,20.91
2018-07-05T00:17:55.546Z,20.86
2018-07-05T00:20:41.905Z,20.81
2018-07-05T00:23:28.159Z,20.78
2018-07-05T00:26:14.382Z,20.73
2018-07-05T00:29:00.908Z,20.71
2018-07-05T00:31:47.329Z,20.66
2018-07-05T00:34:33.811Z,20.61
2018-07-05T00:37:20.180Z,20.60
2018-07-05T00:40:06.713Z,20.58
2018-07-05T00:42:52.927Z,20.55
2018-07-05T00:45:39.245Z,20.55
2018-07-05T00:48:25.667Z,20.54
2018-07-05T00:51:12.079Z,20.56
2018-07-05T00:53:58.525Z,20.57
2018-07-05T00:56:45.195Z,20.57
2018-07-05T00:59:31.532Z,20.53
2018-07-05T01:02:17.957Z,20.50
2018-07-05T01:05:04.287Z,20.47
2018-07-05T01:07:50.862Z,20.44
2018-07-05T01:10:37.311Z,20.45
2018-07-05T01:13:23.802Z,20.44
2018-07-05T01:16:10.130Z,20.44
2018-07-05T01:18:56.466Z,20.40
2018-07-05T01:21:42.946Z,20.35
2018-07-05T01:24:29.232Z,20.29
2018-07-05T01:27:15.568Z,20.23
2018-07-05T01:30:02.104Z,20.18
2018-07-05T01:32:48.491Z,20.15
2018-07-05T01:35:35.525Z,20.11
2018-07-05T01:38:21.895Z,20.07
2018-07-05T01:41:08.390Z,20.06
2018-07-05T01:43:54.868Z,20.03
2018-07-05T01:46:41.317Z,19.99
2018-07-05T01:49:27.842Z,19.96
2018-07-05T01:52:14.194Z,19.95
2018-07-05T01:55:00.824Z,19.93
2018-07-05T01:57:47.313Z,19.90
2018-07-05T02:00:33.638Z,19.90
2018-07-05T02:03:19.946Z,19.90
2018-07-05T02:06:06.375Z,19.89
2018-07-05T02:08:52.766Z,19.87
2018-07-05T02:11:39.324Z,19.87
2018-07-05T02:14:25.567Z,19.88
2018-07-05T02:17:12.011Z,19.88
2018-07-05T02:19:58.647Z,19.86
2018-07-05T02:22:45.094Z,19.85
2018-07-05T02:25:31.477Z,19.81
2018-07-05T02:28:17.976Z,19.77
2018-07-05T02:31:04.290Z,19.75
2018-07-05T02:33:50.528Z,19.70
2018-07-05T02:36:36.879Z,19.65
2018-07-05T02:39:28.611Z,19.59
2018-07-05T02:42:15.268Z,19.55
2018-07-05T02:45:01.586Z,19.52
2018-07-05T02:47:48.042Z,19.55
2018-07-05T02:50:34.349Z,19.55
2018-07-05T02:53:20.591Z,19.57
2018-07-05T02:56:07.044Z,19.56
2018-07-05T02:58:53.412Z,19.55
2018-07-05T03:01:33.774Z,19.55
2018-07-05T03:04:14.290Z,19.58
2018-07-05T03:07:00.539Z,19.58
2018-07-05T03:09:46.774Z,19.58
2018-07-05T03:12:32.970Z,19.59
2018-07-05T03:15:19.364Z,19.60
2018-07-05T03:18:05.683Z,19.61
2018-07-05T03:20:52.250Z,19.64
2018-07-05T03:23:38.731Z,19.67
2018-07-05T03:26:25.264Z,19.74
2018-07-05T03:29:11.646Z,19.81
2018-07-05T03:31:58.224Z,19.91
2018-07-05T03:34:44.377Z,20.00
2018-07-05T03:37:30.731Z,20.13
2018-07-05T03:40:17.129Z,20.25
2018-07-05T03:43:03.317Z,20.37
2018-07-05T03:45:50.146Z,20.54
2018-07-05T03:48:36.438Z,20.72
2018-07-05T03:51:22.835Z,20.89
2018-07-05T03:54:09.259Z,21.10
2018-07-05T03:56:55.710Z,21.32
2018-07-05T03:59:42.202Z,21.57
2018-07-05T04:02:28.623Z,21.82
2018-07-05T04:05:14.930Z,22.09
2018-07-05T04:08:01.444Z,22.39
2018-07-05T04:10:47.823Z,23.16
2018-07-05T04:13:34.125Z,24.02
2018-07-05T04:16:20.553Z,24.65
2018-07-05T04:19:06.920Z,25.28
2018-07-05T04:21:53.216Z,25.63
2018-07-05T04:24:39.542Z,25.93
2018-07-05T04:27:25.924Z,26.37
2018-07-05T04:30:12.163Z,26.06
2018-07-05T04:32:58.497Z,25.63
2018-07-05T04:35:44.778Z,25.32
2018-07-05T04:38:31.166Z,25.10
2018-07-05T04:41:17.534Z,24.90
2018-07-05T04:44:03.796Z,24.76
2018-07-05T04:46:50.039Z,24.67
2018-07-05T04:49:36.383Z,24.58
2018-07-05T04:52:22.767Z,24.58
2018-07-05T04:55:09.157Z,24.57
2018-07-05T04:57:55.660Z,24.60
2018-07-05T05:00:42.174Z,24.66
2018-07-05T05:03:28.420Z,24.74
2018-07-05T05:06:14.722Z,24.82
2018-07-05T05:09:00.879Z,25.03
2018-07-05T05:11:47.285Z,25.68
2018-07-05T05:14:33.924Z,26.72
2018-07-05T05:17:20.391Z,28.39
2018-07-05T05:20:06.866Z,29.78
2018-07-05T05:22:53.300Z,30.94
2018-07-05T05:25:39.765Z,31.63
2018-07-05T05:35:48.915Z,33.72
2018-07-05T05:38:35.424Z,34.19
2018-07-05T05:41:21.863Z,34.66
2018-07-05T05:44:08.158Z,35.17
2018-07-05T05:46:54.533Z,35.70
2018-07-05T05:49:40.739Z,36.24
2018-07-05T05:52:27.235Z,36.70
2018-07-05T05:55:13.860Z,37.08
2018-07-05T05:58:00.299Z,37.58
2018-07-05T06:00:46.698Z,37.89
2018-07-05T06:03:32.968Z,38.30
2018-07-05T06:06:19.242Z,38.74
2018-07-05T06:09:05.840Z,39.06
2018-07-05T06:11:52.215Z,39.23
2018-07-05T06:14:38.567Z,39.46
2018-07-05T06:17:24.761Z,39.73
2018-07-05T06:20:11.138Z,39.79
2018-07-05T06:22:57.549Z,39.85
2018-07-05T06:25:43.895Z,39.92
2018-07-05T06:28:30.334Z,39.93
2018-07-05T06:31:16.667Z,39.99
2018-07-05T06:34:02.976Z,39.95
2018-07-05T06:36:49.345Z,39.96
